Renderfarm Status:OK
Avg Time Per Frame:32.3 min/frame
Total Users Today:12
Total CPU Time Today:973.24 Hours
Total Frames Waiting:0
Today's CPU Champion:mzhang27 / 12 days 19 hr
Active Jobs
Job User Frames Renderer Total CPU Average Start End Status
51434 haiqiu20 100 arnold 47.43 Hours 30.3 min 10/20 04:18 PM Rendering
Completed Jobs
Job User Frames Renderer Total CPU Average Start End Speedup Status
51436 kczern20 100 arnold 8.17 Hours 4.9 min 10/20 04:27 PM 10/20 04:50 PM 21x Complete!
51435 dgrzes20 100 houdini 7.67 Hours 4.6 min 10/20 04:25 PM 10/20 04:43 PM 25.5x Complete!
51433 haiqiu20 82 arnold 38.01 Hours 27.8 min 10/20 02:59 PM 10/20 04:15 PM 29.8x Complete!
51432 jwalke39 100 houdini 30.79 Hours 18.5 min 10/20 11:37 AM 10/20 12:21 PM 42x Complete!
51431 jwalke39 100 houdini 0 Hours 0 min 10/20 10:58 AM 10/20 11:37 AM 0x Complete!
51430 dgrzes20 100 houdini 3.35 Hours 2 min 10/20 10:46 AM 10/20 10:57 AM 19.6x Complete!
51429 jwalke39 100 houdini 0 Hours 0 min 10/20 10:26 AM 10/20 10:57 AM 0x Complete!
51428 botili20 4 houdini 0.76 Hours 11.4 min 10/20 10:00 AM 10/20 10:19 AM 2.3x Complete!
51427 mzhang27 4 arnold 7.36 Hours 110.4 min 10/20 09:40 AM 10/20 12:46 PM 2.4x Complete!
51426 jwalke39 40 houdini 11.53 Hours 17.3 min 10/20 09:04 AM 10/20 09:35 AM 22.4x Complete!
51425 botili20 91 houdini 26.81 Hours 17.7 min 10/20 08:29 AM 10/20 09:02 AM 49.8x Complete!
51424 jwalke39 100 houdini 32.21 Hours 19.3 min 10/20 08:22 AM 10/20 08:55 AM 57.9x Complete!
51423 botili20 91 houdini 29.53 Hours 19.5 min 10/20 07:51 AM 10/20 08:22 AM 57.4x Complete!
51422 jwalke39 100 houdini 32.89 Hours 19.7 min 10/20 07:30 AM 10/20 08:15 AM 43.2x Complete!
51421 emerca20 94 rman 20.06 Hours 12.8 min 10/20 07:19 AM 10/20 07:55 AM 33.6x Complete!
51420 ratwat20 1 rman 0.11 Hours 6.3 min 10/20 07:14 AM 10/20 07:20 AM 1x Complete!
51419 ratwat20 2 rman 0.1 Hours 3.1 min 10/20 07:07 AM 10/20 07:10 AM 1.9x Complete!
51418 botili20 21 houdini 3.07 Hours 8.8 min 10/20 06:01 AM 10/20 07:46 AM 1.7x Complete!
51417 mzhang27 72 arnold 166.65 Hours 138.9 min 10/20 05:15 AM 10/20 09:29 AM 39.3x Complete!
51416 jnorth20 100 arnold 204.65 Hours 122.8 min 10/20 02:26 AM 10/20 09:48 AM 27.8x Complete!
51415 mzhang27 72 arnold 131.84 Hours 109.9 min 10/20 01:28 AM 10/20 05:15 AM 34.9x Complete!
51414 shexie20 100 arnold 141.75 Hours 85.1 min 10/20 01:14 AM 10/20 03:34 AM 60.4x Complete!
51413 jwalke40 4 arnold 0.23 Hours 3.5 min 10/20 12:29 AM 10/20 12:33 AM 3.4x Complete!
51412 jwalke40 5 arnold 0.36 Hours 4.3 min 10/20 12:22 AM 10/20 12:28 AM 3.7x Complete!
51411 jwalke40 46 arnold 3.48 Hours 4.5 min 10/20 12:09 AM 10/20 12:20 AM 19.1x Complete!
51410 dbarnh21 60 houdini 0.43 Hours 0.4 min 10/20 12:05 AM 10/20 12:06 AM 28.4x Complete!
51409 dbarnh21 100 houdini 0.84 Hours 0.5 min 10/20 12:01 AM 10/20 12:02 AM 37.7x Complete!
51408 dbarnh21 100 houdini 0.77 Hours 0.5 min 10/20 12:00 AM 10/20 12:01 AM 31.1x Complete!
51407 dbarnh21 100 houdini 0.81 Hours 0.5 min 10/19 11:57 PM 10/19 11:59 PM 36.7x Complete!
51406 haiqiu20 76 arnold 38.26 Hours 30.2 min 10/19 11:27 PM 10/20 12:13 AM 49.1x Complete!
51405 jwalke40 5 arnold 0.33 Hours 4 min 10/19 11:18 PM 10/19 11:23 PM 3.5x Complete!
51404 jwalke40 30 arnold 0 Hours 0 min 10/19 11:11 PM 10/19 11:16 PM 0x Complete!
51403 jwalke40 100 arnold 0 Hours 0 min 10/19 10:58 PM 10/19 11:11 PM 0x Complete!
51402 jwalke40 2 arnold 0.23 Hours 6.8 min 10/19 10:49 PM 10/19 10:56 PM 1.9x Complete!
51401 emerca20 100 rman 24.7 Hours 14.8 min 10/19 10:34 PM 10/19 11:02 PM 53.7x Complete!
51400 jwalke40 3 arnold 0.4 Hours 8 min 10/19 10:05 PM 10/19 10:26 PM 1.1x Complete!
51399 mzhang27 48 arnold 43.48 Hours 54.4 min 10/19 10:00 PM 10/20 12:02 AM 21.4x Complete!
51398 emerca20 100 rman 15.22 Hours 9.1 min 10/19 09:57 PM 10/19 10:23 PM 35.1x Complete!
51397 jwalke40 5 arnold 0.34 Hours 4.1 min 10/19 09:55 PM 10/19 10:01 PM 3.7x Complete!
51396 haiqiu20 82 arnold 37.05 Hours 27.1 min 10/19 09:54 PM 10/19 11:06 PM 30.8x Complete!
51395 jwalke40 2 arnold 0.12 Hours 3.7 min 10/19 09:49 PM 10/19 09:53 PM 1.8x Complete!
51394 jwalke40 5 arnold 0.01 Hours 0.1 min 10/19 09:43 PM 10/19 09:43 PM 1.9x Complete!
51393 jwalke40 5 arnold 0.22 Hours 2.7 min 10/19 09:34 PM 10/19 09:38 PM 3.4x Complete!
51392 ratwat20 20 rman 1.88 Hours 5.7 min 10/19 08:41 PM 10/19 08:52 PM 10.1x Complete!
51391 haiqiu20 76 arnold 37.41 Hours 29.5 min 10/19 08:25 PM 10/19 09:04 PM 57.5x Complete!
51390 mzhang27 48 arnold 52.89 Hours 66.1 min 10/19 08:10 PM 10/19 09:59 PM 29.1x Complete!
51389 jecruz20 5 rman 17.35 Hours 208.2 min 10/19 07:07 PM 10/20 12:58 AM 3x Complete!
51388 dohail20 100 houdini 18.63 Hours 11.2 min 10/19 06:07 PM 10/19 06:36 PM 38.8x Complete!
51387 dohail20 100 houdini 3.91 Hours 2.3 min 10/19 05:53 PM 10/19 06:06 PM 17.2x Complete!
51386 haiqiu20 82 arnold 37.81 Hours 27.7 min 10/19 05:40 PM 10/19 06:41 PM 37.2x Complete!
Copyright 2014 Savannah College of Art and Design